sensor_id;sensor_type;location;lat;lon;timestamp;temperature;humidity
19892;DHT22;10108;50.142;8.724;2023-06-10T00:02:12;19.50;99.90
19892;DHT22;10108;50.142;8.724;2023-06-10T00:04:38;19.50;99.90
19892;DHT22;10108;50.142;8.724;2023-06-10T00:07:04;19.50;99.90
19892;DHT22;10108;50.142;8.724;2023-06-10T00:09:35;19.40;99.90
19892;DHT22;10108;50.142;8.724;2023-06-10T00:12:04;19.40;99.90
19892;DHT22;10108;50.142;8.724;2023-06-10T00:14:31;19.40;99.90
19892;DHT22;10108;50.142;8.724;2023-06-10T00:16:57;19.40;99.90
19892;DHT22;10108;50.142;8.724;2023-06-10T00:19:23;19.40;99.90
19892;DHT22;10108;50.142;8.724;2023-06-10T00:21:56;19.40;99.90
19892;DHT22;10108;50.142;8.724;2023-06-10T00:24:23;19.30;99.90
19892;DHT22;10108;50.142;8.724;2023-06-10T00:26:49;19.30;99.90
19892;DHT22;10108;50.142;8.724;2023-06-10T00:29:15;19.30;99.90
19892;DHT22;10108;50.142;8.724;2023-06-10T00:31:45;19.30;99.90
19892;DHT22;10108;50.142;8.724;2023-06-10T00:34:12;19.30;99.90
19892;DHT22;10108;50.142;8.724;2023-06-10T00:36:38;19.20;99.90
19892;DHT22;10108;50.142;8.724;2023-06-10T00:39:04;19.20;99.90
19892;DHT22;10108;50.142;8.724;2023-06-10T00:41:31;19.20;99.90
19892;DHT22;10108;50.142;8.724;2023-06-10T00:43:59;19.20;99.90
19892;DHT22;10108;50.142;8.724;2023-06-10T00:46:26;19.20;99.90
19892;DHT22;10108;50.142;8.724;2023-06-10T00:48:55;19.20;99.90
19892;DHT22;10108;50.142;8.724;2023-06-10T00:51:22;19.20;99.90
19892;DHT22;10108;50.142;8.724;2023-06-10T00:53:49;19.20;99.90
19892;DHT22;10108;50.142;8.724;2023-06-10T00:56:15;19.20;99.90
19892;DHT22;10108;50.142;8.724;2023-06-10T00:58:41;19.10;99.90
19892;DHT22;10108;50.142;8.724;2023-06-10T01:01:07;19.10;99.90
19892;DHT22;10108;50.142;8.724;2023-06-10T01:03:37;19.10;99.90
19892;DHT22;10108;50.142;8.724;2023-06-10T01:11:29;19.00;99.90
19892;DHT22;10108;50.142;8.724;2023-06-10T01:13:58;19.00;99.90
19892;DHT22;10108;50.142;8.724;2023-06-10T01:16:25;19.00;99.90
19892;DHT22;10108;50.142;8.724;2023-06-10T01:18:52;19.00;99.90
19892;DHT22;10108;50.142;8.724;2023-06-10T01:21:20;19.00;99.90
19892;DHT22;10108;50.142;8.724;2023-06-10T01:23:47;19.00;99.90
19892;DHT22;10108;50.142;8.724;2023-06-10T01:26:13;18.90;99.90
19892;DHT22;10108;50.142;8.724;2023-06-10T01:28:51;18.90;99.90
19892;DHT22;10108;50.142;8.724;2023-06-10T01:31:43;18.90;99.90
19892;DHT22;10108;50.142;8.724;2023-06-10T01:34:17;18.90;99.90
19892;DHT22;10108;50.142;8.724;2023-06-10T01:36:48;18.90;99.90
19892;DHT22;10108;50.142;8.724;2023-06-10T01:39:15;18.80;99.90
19892;DHT22;10108;50.142;8.724;2023-06-10T01:41:43;18.80;99.90
19892;DHT22;10108;50.142;8.724;2023-06-10T01:44:10;18.80;99.90
19892;DHT22;10108;50.142;8.724;2023-06-10T01:46:39;18.80;99.90
19892;DHT22;10108;50.142;8.724;2023-06-10T01:49:05;18.80;99.90
19892;DHT22;10108;50.142;8.724;2023-06-10T01:51:32;18.70;99.90
19892;DHT22;10108;50.142;8.724;2023-06-10T01:53:59;18.70;99.90
19892;DHT22;10108;50.142;8.724;2023-06-10T01:56:25;18.70;99.90
19892;DHT22;10108;50.142;8.724;2023-06-10T01:58:52;18.70;99.90
19892;DHT22;10108;50.142;8.724;2023-06-10T02:01:20;18.70;99.90
19892;DHT22;10108;50.142;8.724;2023-06-10T02:03:47;18.70;99.90
19892;DHT22;10108;50.142;8.724;2023-06-10T02:06:13;18.70;99.90
19892;DHT22;10108;50.142;8.724;2023-06-10T02:08:39;18.70;99.90
19892;DHT22;10108;50.142;8.724;2023-06-10T02:11:05;18.70;99.90
19892;DHT22;10108;50.142;8.724;2023-06-10T02:13:33;18.60;99.90
19892;DHT22;10108;50.142;8.724;2023-06-10T02:15:59;18.60;99.90
19892;DHT22;10108;50.142;8.724;2023-06-10T02:18:29;18.60;99.90
19892;DHT22;10108;50.142;8.724;2023-06-10T02:20:55;18.60;99.90
19892;DHT22;10108;50.142;8.724;2023-06-10T02:23:22;18.60;99.90
19892;DHT22;10108;50.142;8.724;2023-06-10T02:25:48;18.60;99.90
19892;DHT22;10108;50.142;8.724;2023-06-10T02:28:14;18.50;99.90
19892;DHT22;10108;50.142;8.724;2023-06-10T02:30:41;18.50;99.90
19892;DHT22;10108;50.142;8.724;2023-06-10T02:33:08;18.50;99.90
19892;DHT22;10108;50.142;8.724;2023-06-10T02:35:38;18.50;99.90
19892;DHT22;10108;50.142;8.724;2023-06-10T02:38:04;18.50;99.90
19892;DHT22;10108;50.142;8.724;2023-06-10T02:40:32;18.50;99.90
19892;DHT22;10108;50.142;8.724;2023-06-10T02:42:59;18.50;99.90
19892;DHT22;10108;50.142;8.724;2023-06-10T02:45:25;18.50;99.90
19892;DHT22;10108;50.142;8.724;2023-06-10T02:47:52;18.50;99.90
19892;DHT22;10108;50.142;8.724;2023-06-10T02:50:18;18.50;99.90
19892;DHT22;10108;50.142;8.724;2023-06-10T02:53:01;18.50;99.90
19892;DHT22;10108;50.142;8.724;2023-06-10T02:55:28;18.50;99.90
19892;DHT22;10108;50.142;8.724;2023-06-10T02:57:59;18.40;99.90
19892;DHT22;10108;50.142;8.724;2023-06-10T03:00:26;18.50;99.90
19892;DHT22;10108;50.142;8.724;2023-06-10T03:02:54;18.50;99.90
19892;DHT22;10108;50.142;8.724;2023-06-10T03:05:25;18.50;99.90
19892;DHT22;10108;50.142;8.724;2023-06-10T03:07:53;18.40;99.90
19892;DHT22;10108;50.142;8.724;2023-06-10T03:10:19;18.40;99.90
19892;DHT22;10108;50.142;8.724;2023-06-10T03:12:46;18.40;99.90
19892;DHT22;10108;50.142;8.724;2023-06-10T03:15:12;18.40;99.90
19892;DHT22;10108;50.142;8.724;2023-06-10T03:17:40;18.40;99.90
19892;DHT22;10108;50.142;8.724;2023-06-10T03:20:07;18.40;99.90
19892;DHT22;10108;50.142;8.724;2023-06-10T03:22:36;18.40;99.90
19892;DHT22;10108;50.142;8.724;2023-06-10T03:25:08;18.40;99.90
19892;DHT22;10108;50.142;8.724;2023-06-10T03:27:41;18.40;99.90
19892;DHT22;10108;50.142;8.724;2023-06-10T03:30:09;18.30;99.90
19892;DHT22;10108;50.142;8.724;2023-06-10T03:32:36;18.30;99.90
19892;DHT22;10108;50.142;8.724;2023-06-10T03:35:03;18.30;99.90
19892;DHT22;10108;50.142;8.724;2023-06-10T03:37:31;18.30;99.90
19892;DHT22;10108;50.142;8.724;2023-06-10T03:39:57;18.30;99.90
19892;DHT22;10108;50.142;8.724;2023-06-10T03:42:23;18.30;99.90
19892;DHT22;10108;50.142;8.724;2023-06-10T03:44:49;18.20;99.90
19892;DHT22;10108;50.142;8.724;2023-06-10T03:47:15;18.30;99.90
19892;DHT22;10108;50.142;8.724;2023-06-10T03:49:42;18.30;99.90
19892;DHT22;10108;50.142;8.724;2023-06-10T03:52:08;18.30;99.90
19892;DHT22;10108;50.142;8.724;2023-06-10T03:54:35;18.30;99.90
19892;DHT22;10108;50.142;8.724;2023-06-10T03:57:02;18.30;99.90
19892;DHT22;10108;50.142;8.724;2023-06-10T03:59:30;18.30;99.90
19892;DHT22;10108;50.142;8.724;2023-06-10T04:01:56;18.30;99.90
19892;DHT22;10108;50.142;8.724;2023-06-10T04:04:23;18.30;99.90
19892;DHT22;10108;50.142;8.724;2023-06-10T04:06:49;18.30;99.90
19892;DHT22;10108;50.142;8.724;2023-06-10T04:09:16;18.30;99.90
19892;DHT22;10108;50.142;8.724;2023-06-10T04:11:43;18.40;99.90
19892;DHT22;10108;50.142;8.724;2023-06-10T04:14:09;18.40;99.90
19892;DHT22;10108;50.142;8.724;2023-06-10T04:16:36;18.40;99.90
19892;DHT22;10108;50.142;8.724;2023-06-10T04:19:03;18.40;99.90
19892;DHT22;10108;50.142;8.724;2023-06-10T04:21:29;18.40;99.90
19892;DHT22;10108;50.142;8.724;2023-06-10T04:23:55;18.40;99.90
19892;DHT22;10108;50.142;8.724;2023-06-10T04:26:21;18.40;99.90
19892;DHT22;10108;50.142;8.724;2023-06-10T04:28:48;18.40;99.90
19892;DHT22;10108;50.142;8.724;2023-06-10T04:31:15;18.50;99.90
19892;DHT22;10108;50.142;8.724;2023-06-10T04:33:42;18.40;99.90
19892;DHT22;10108;50.142;8.724;2023-06-10T04:36:08;18.50;99.90
19892;DHT22;10108;50.142;8.724;2023-06-10T04:38:36;18.50;99.90
19892;DHT22;10108;50.142;8.724;2023-06-10T04:41:02;18.50;99.90
19892;DHT22;10108;50.142;8.724;2023-06-10T04:43:31;18.50;99.90
19892;DHT22;10108;50.142;8.724;2023-06-10T04:45:59;18.50;99.90
19892;DHT22;10108;50.142;8.724;2023-06-10T04:48:26;18.50;99.90
19892;DHT22;10108;50.142;8.724;2023-06-10T04:50:53;18.50;99.90
19892;DHT22;10108;50.142;8.724;2023-06-10T04:53:19;18.60;99.90
19892;DHT22;10108;50.142;8.724;2023-06-10T04:55:46;18.60;99.90
19892;DHT22;10108;50.142;8.724;2023-06-10T04:58:14;18.60;99.90
19892;DHT22;10108;50.142;8.724;2023-06-10T05:00:41;18.60;99.90
19892;DHT22;10108;50.142;8.724;2023-06-10T05:03:07;18.60;99.90
19892;DHT22;10108;50.142;8.724;2023-06-10T05:05:33;18.60;99.90
19892;DHT22;10108;50.142;8.724;2023-06-10T05:08:00;18.70;99.90
19892;DHT22;10108;50.142;8.724;2023-06-10T05:10:26;18.70;99.90
19892;DHT22;10108;50.142;8.724;2023-06-10T05:12:52;18.70;99.90
19892;DHT22;10108;50.142;8.724;2023-06-10T05:15:18;18.70;99.90
19892;DHT22;10108;50.142;8.724;2023-06-10T05:17:44;18.80;99.90
19892;DHT22;10108;50.142;8.724;2023-06-10T05:20:11;18.80;99.90
19892;DHT22;10108;50.142;8.724;2023-06-10T05:22:37;18.70;99.90
19892;DHT22;10108;50.142;8.724;2023-06-10T05:25:03;18.70;99.90
19892;DHT22;10108;50.142;8.724;2023-06-10T05:27:30;18.70;99.90
19892;DHT22;10108;50.142;8.724;2023-06-10T05:29:56;18.70;99.90
19892;DHT22;10108;50.142;8.724;2023-06-10T05:32:22;18.80;99.90
19892;DHT22;10108;50.142;8.724;2023-06-10T05:34:48;18.90;99.90
19892;DHT22;10108;50.142;8.724;2023-06-10T05:37:14;18.90;99.90
19892;DHT22;10108;50.142;8.724;2023-06-10T05:39:40;19.00;99.90
19892;DHT22;10108;50.142;8.724;2023-06-10T05:42:07;19.20;99.90
19892;DHT22;10108;50.142;8.724;2023-06-10T05:44:34;19.20;99.80
19892;DHT22;10108;50.142;8.724;2023-06-10T05:47:00;19.30;99.60
19892;DHT22;10108;50.142;8.724;2023-06-10T05:49:27;19.40;99.70
19892;DHT22;10108;50.142;8.724;2023-06-10T05:51:53;19.50;99.80
19892;DHT22;10108;50.142;8.724;2023-06-10T05:54:19;19.50;99.70
19892;DHT22;10108;50.142;8.724;2023-06-10T05:56:45;19.60;99.90
19892;DHT22;10108;50.142;8.724;2023-06-10T05:59:11;19.60;99.50
19892;DHT22;10108;50.142;8.724;2023-06-10T06:01:37;19.70;99.60
19892;DHT22;10108;50.142;8.724;2023-06-10T06:04:03;19.80;99.90
19892;DHT22;10108;50.142;8.724;2023-06-10T06:06:30;19.80;99.80
19892;DHT22;10108;50.142;8.724;2023-06-10T06:08:56;19.80;99.50
19892;DHT22;10108;50.142;8.724;2023-06-10T06:11:22;19.80;99.20
19892;DHT22;10108;50.142;8.724;2023-06-10T06:13:48;19.80;99.20
19892;DHT22;10108;50.142;8.724;2023-06-10T06:16:14;19.80;99.40
19892;DHT22;10108;50.142;8.724;2023-06-10T06:18:41;19.80;99.20
19892;DHT22;10108;50.142;8.724;2023-06-10T06:21:07;19.80;99.40
19892;DHT22;10108;50.142;8.724;2023-06-10T06:23:33;19.80;99.50
19892;DHT22;10108;50.142;8.724;2023-06-10T06:25:59;19.80;99.60
19892;DHT22;10108;50.142;8.724;2023-06-10T06:28:26;19.80;99.90
19892;DHT22;10108;50.142;8.724;2023-06-10T06:30:56;19.90;99.90
19892;DHT22;10108;50.142;8.724;2023-06-10T06:33:22;19.90;99.60
19892;DHT22;10108;50.142;8.724;2023-06-10T06:35:48;19.90;99.40
19892;DHT22;10108;50.142;8.724;2023-06-10T06:38:14;19.90;99.60
19892;DHT22;10108;50.142;8.724;2023-06-10T06:40:41;19.90;99.60
19892;DHT22;10108;50.142;8.724;2023-06-10T06:43:07;19.90;99.60
19892;DHT22;10108;50.142;8.724;2023-06-10T06:45:52;19.90;99.40
19892;DHT22;10108;50.142;8.724;2023-06-10T06:48:18;19.90;99.70
19892;DHT22;10108;50.142;8.724;2023-06-10T06:50:44;20.00;99.90
19892;DHT22;10108;50.142;8.724;2023-06-10T06:53:10;20.00;99.90
19892;DHT22;10108;50.142;8.724;2023-06-10T06:55:37;20.00;99.90
19892;DHT22;10108;50.142;8.724;2023-06-10T06:58:03;20.00;99.80
19892;DHT22;10108;50.142;8.724;2023-06-10T07:00:30;20.00;99.90
19892;DHT22;10108;50.142;8.724;2023-06-10T07:02:56;20.00;99.90
19892;DHT22;10108;50.142;8.724;2023-06-10T07:05:23;20.00;99.80
19892;DHT22;10108;50.142;8.724;2023-06-10T07:07:52;20.10;99.90
19892;DHT22;10108;50.142;8.724;2023-06-10T07:10:22;20.10;99.90
19892;DHT22;10108;50.142;8.724;2023-06-10T07:12:48;20.10;99.90
19892;DHT22;10108;50.142;8.724;2023-06-10T07:15:14;20.10;99.90
19892;DHT22;10108;50.142;8.724;2023-06-10T07:17:41;20.10;99.50
19892;DHT22;10108;50.142;8.724;2023-06-10T07:20:07;20.10;99.40
19892;DHT22;10108;50.142;8.724;2023-06-10T07:22:33;20.10;99.50
19892;DHT22;10108;50.142;8.724;2023-06-10T07:25:00;20.10;99.70
19892;DHT22;10108;50.142;8.724;2023-06-10T07:27:26;20.20;99.60
19892;DHT22;10108;50.142;8.724;2023-06-10T07:29:52;20.20;99.60
19892;DHT22;10108;50.142;8.724;2023-06-10T07:32:19;20.20;99.90
19892;DHT22;10108;50.142;8.724;2023-06-10T07:34:48;20.20;99.90
19892;DHT22;10108;50.142;8.724;2023-06-10T07:37:14;20.20;99.90
19892;DHT22;10108;50.142;8.724;2023-06-10T07:39:40;20.20;99.70
19892;DHT22;10108;50.142;8.724;2023-06-10T07:42:06;20.30;99.60
19892;DHT22;10108;50.142;8.724;2023-06-10T07:44:33;20.30;99.50
19892;DHT22;10108;50.142;8.724;2023-06-10T07:46:59;20.30;99.30
19892;DHT22;10108;50.142;8.724;2023-06-10T07:49:25;20.30;99.20
19892;DHT22;10108;50.142;8.724;2023-06-10T07:51:54;20.40;99.30
19892;DHT22;10108;50.142;8.724;2023-06-10T07:54:21;20.40;99.30
19892;DHT22;10108;50.142;8.724;2023-06-10T07:56:47;20.40;99.80
19892;DHT22;10108;50.142;8.724;2023-06-10T07:59:13;20.40;99.90
19892;DHT22;10108;50.142;8.724;2023-06-10T08:01:40;20.40;99.90
19892;DHT22;10108;50.142;8.724;2023-06-10T08:04:06;20.40;99.90
19892;DHT22;10108;50.142;8.724;2023-06-10T08:06:33;20.40;99.90
19892;DHT22;10108;50.142;8.724;2023-06-10T08:08:59;20.40;99.70
19892;DHT22;10108;50.142;8.724;2023-06-10T08:11:26;20.40;99.70
19892;DHT22;10108;50.142;8.724;2023-06-10T08:13:54;20.50;99.90
19892;DHT22;10108;50.142;8.724;2023-06-10T08:16:20;20.40;99.90
19892;DHT22;10108;50.142;8.724;2023-06-10T08:18:46;20.50;99.90
19892;DHT22;10108;50.142;8.724;2023-06-10T08:21:12;20.50;99.90
19892;DHT22;10108;50.142;8.724;2023-06-10T08:23:39;20.50;99.90
19892;DHT22;10108;50.142;8.724;2023-06-10T08:26:06;20.50;99.90
19892;DHT22;10108;50.142;8.724;2023-06-10T08:28:32;20.50;99.90
19892;DHT22;10108;50.142;8.724;2023-06-10T08:30:58;20.60;99.90
19892;DHT22;10108;50.142;8.724;2023-06-10T08:33:24;20.60;99.90
19892;DHT22;10108;50.142;8.724;2023-06-10T08:35:50;20.60;99.90
19892;DHT22;10108;50.142;8.724;2023-06-10T08:38:16;20.60;99.90
19892;DHT22;10108;50.142;8.724;2023-06-10T08:40:42;20.60;99.90
19892;DHT22;10108;50.142;8.724;2023-06-10T08:43:30;20.60;99.90
19892;DHT22;10108;50.142;8.724;2023-06-10T08:46:00;20.60;99.90
19892;DHT22;10108;50.142;8.724;2023-06-10T08:48:29;20.60;99.90
19892;DHT22;10108;50.142;8.724;2023-06-10T08:50:57;20.60;99.90
19892;DHT22;10108;50.142;8.724;2023-06-10T08:53:26;20.60;99.90
19892;DHT22;10108;50.142;8.724;2023-06-10T08:55:53;20.70;99.90
19892;DHT22;10108;50.142;8.724;2023-06-10T08:58:22;20.70;99.90
19892;DHT22;10108;50.142;8.724;2023-06-10T09:00:48;20.70;99.90
19892;DHT22;10108;50.142;8.724;2023-06-10T09:03:14;20.70;99.90
19892;DHT22;10108;50.142;8.724;2023-06-10T09:05:42;20.80;99.90
19892;DHT22;10108;50.142;8.724;2023-06-10T09:08:08;20.80;99.90
19892;DHT22;10108;50.142;8.724;2023-06-10T09:10:35;20.80;99.90
19892;DHT22;10108;50.142;8.724;2023-06-10T09:13:01;20.80;99.90
19892;DHT22;10108;50.142;8.724;2023-06-10T09:15:27;20.80;99.90
19892;DHT22;10108;50.142;8.724;2023-06-10T09:17:54;20.90;99.90
19892;DHT22;10108;50.142;8.724;2023-06-10T09:20:20;20.90;99.90
19892;DHT22;10108;50.142;8.724;2023-06-10T09:22:46;20.90;99.90
19892;DHT22;10108;50.142;8.724;2023-06-10T09:25:13;20.90;99.90
19892;DHT22;10108;50.142;8.724;2023-06-10T09:27:46;20.90;99.90
19892;DHT22;10108;50.142;8.724;2023-06-10T09:30:30;20.90;99.90
19892;DHT22;10108;50.142;8.724;2023-06-10T09:32:57;20.90;99.90
19892;DHT22;10108;50.142;8.724;2023-06-10T09:35:28;21.00;99.90
19892;DHT22;10108;50.142;8.724;2023-06-10T09:37:58;21.00;99.90
19892;DHT22;10108;50.142;8.724;2023-06-10T09:40:25;21.00;99.90
19892;DHT22;10108;50.142;8.724;2023-06-10T09:42:56;21.10;99.90
19892;DHT22;10108;50.142;8.724;2023-06-10T09:45:23;21.20;99.90
19892;DHT22;10108;50.142;8.724;2023-06-10T09:47:55;21.20;99.90
19892;DHT22;10108;50.142;8.724;2023-06-10T09:50:21;21.20;99.90
19892;DHT22;10108;50.142;8.724;2023-06-10T09:52:48;21.20;99.90
19892;DHT22;10108;50.142;8.724;2023-06-10T09:55:14;21.20;99.90
19892;DHT22;10108;50.142;8.724;2023-06-10T09:57:40;21.30;99.20
19892;DHT22;10108;50.142;8.724;2023-06-10T10:00:11;21.40;99.30
19892;DHT22;10108;50.142;8.724;2023-06-10T10:02:51;21.40;99.50
19892;DHT22;10108;50.142;8.724;2023-06-10T10:05:19;21.30;99.90
19892;DHT22;10108;50.142;8.724;2023-06-10T10:07:46;21.30;99.90
19892;DHT22;10108;50.142;8.724;2023-06-10T10:10:14;21.30;99.90
19892;DHT22;10108;50.142;8.724;2023-06-10T10:12:41;21.30;99.90
19892;DHT22;10108;50.142;8.724;2023-06-10T10:15:09;21.30;99.90
19892;DHT22;10108;50.142;8.724;2023-06-10T10:20:29;21.30;99.80
19892;DHT22;10108;50.142;8.724;2023-06-10T10:22:58;21.40;99.50
19892;DHT22;10108;50.142;8.724;2023-06-10T10:25:32;21.50;99.50
19892;DHT22;10108;50.142;8.724;2023-06-10T10:28:09;21.50;99.00
19892;DHT22;10108;50.142;8.724;2023-06-10T10:30:44;21.50;99.10
19892;DHT22;10108;50.142;8.724;2023-06-10T10:33:26;21.60;99.10
19892;DHT22;10108;50.142;8.724;2023-06-10T10:35:57;21.60;99.10
19892;DHT22;10108;50.142;8.724;2023-06-10T10:38:24;21.70;98.70
19892;DHT22;10108;50.142;8.724;2023-06-10T10:40:51;21.70;98.30
19892;DHT22;10108;50.142;8.724;2023-06-10T10:43:18;21.70;98.60
19892;DHT22;10108;50.142;8.724;2023-06-10T10:45:58;21.70;98.80
19892;DHT22;10108;50.142;8.724;2023-06-10T10:48:25;21.60;98.70
19892;DHT22;10108;50.142;8.724;2023-06-10T10:50:58;21.60;98.20
19892;DHT22;10108;50.142;8.724;2023-06-10T10:53:25;21.60;97.90
19892;DHT22;10108;50.142;8.724;2023-06-10T10:56:07;21.60;98.00
19892;DHT22;10108;50.142;8.724;2023-06-10T10:58:34;21.60;98.30
19892;DHT22;10108;50.142;8.724;2023-06-10T11:01:10;21.50;98.60
19892;DHT22;10108;50.142;8.724;2023-06-10T11:03:45;21.50;98.80
19892;DHT22;10108;50.142;8.724;2023-06-10T11:06:15;21.50;98.80
19892;DHT22;10108;50.142;8.724;2023-06-10T11:11:23;21.40;98.90
19892;DHT22;10108;50.142;8.724;2023-06-10T11:16:29;21.40;98.90
19892;DHT22;10108;50.142;8.724;2023-06-10T11:18:56;21.40;98.70
19892;DHT22;10108;50.142;8.724;2023-06-10T11:21:25;21.50;98.50
19892;DHT22;10108;50.142;8.724;2023-06-10T11:23:51;21.60;97.10
19892;DHT22;10108;50.142;8.724;2023-06-10T11:31:19;21.80;97.10
19892;DHT22;10108;50.142;8.724;2023-06-10T11:33:47;21.80;97.50
19892;DHT22;10108;50.142;8.724;2023-06-10T11:36:14;21.90;96.90
19892;DHT22;10108;50.142;8.724;2023-06-10T11:38:41;22.00;97.00
19892;DHT22;10108;50.142;8.724;2023-06-10T11:41:08;22.00;97.50
19892;DHT22;10108;50.142;8.724;2023-06-10T11:43:34;22.10;97.40
19892;DHT22;10108;50.142;8.724;2023-06-10T11:46:00;22.20;97.40
19892;DHT22;10108;50.142;8.724;2023-06-10T11:48:27;22.20;97.30
19892;DHT22;10108;50.142;8.724;2023-06-10T11:50:57;22.20;96.60
19892;DHT22;10108;50.142;8.724;2023-06-10T11:53:23;22.30;97.30
19892;DHT22;10108;50.142;8.724;2023-06-10T11:55:50;22.20;97.50
19892;DHT22;10108;50.142;8.724;2023-06-10T11:58:21;22.20;97.60
19892;DHT22;10108;50.142;8.724;2023-06-10T12:00:54;22.10;97.70
19892;DHT22;10108;50.142;8.724;2023-06-10T12:03:24;22.10;97.50
19892;DHT22;10108;50.142;8.724;2023-06-10T12:05:58;22.10;96.90
19892;DHT22;10108;50.142;8.724;2023-06-10T12:08:24;22.20;97.00
19892;DHT22;10108;50.142;8.724;2023-06-10T12:10:51;22.20;96.60
19892;DHT22;10108;50.142;8.724;2023-06-10T12:13:17;22.20;96.00
19892;DHT22;10108;50.142;8.724;2023-06-10T12:15:44;22.20;96.70
19892;DHT22;10108;50.142;8.724;2023-06-10T12:18:23;22.20;96.90
19892;DHT22;10108;50.142;8.724;2023-06-10T12:20:50;22.20;96.90
19892;DHT22;10108;50.142;8.724;2023-06-10T12:23:17;22.10;97.40
19892;DHT22;10108;50.142;8.724;2023-06-10T12:25:51;22.10;97.90
19892;DHT22;10108;50.142;8.724;2023-06-10T12:28:25;22.10;96.90
19892;DHT22;10108;50.142;8.724;2023-06-10T12:31:06;22.10;96.20
19892;DHT22;10108;50.142;8.724;2023-06-10T12:33:33;22.10;96.50
19892;DHT22;10108;50.142;8.724;2023-06-10T12:35:59;22.10;95.70
19892;DHT22;10108;50.142;8.724;2023-06-10T12:38:26;22.20;96.30
19892;DHT22;10108;50.142;8.724;2023-06-10T12:41:01;22.40;95.00
19892;DHT22;10108;50.142;8.724;2023-06-10T12:43:31;22.60;95.00
19892;DHT22;10108;50.142;8.724;2023-06-10T12:46:08;22.80;94.80
19892;DHT22;10108;50.142;8.724;2023-06-10T12:48:35;22.90;95.10
19892;DHT22;10108;50.142;8.724;2023-06-10T12:51:01;22.80;95.40
19892;DHT22;10108;50.142;8.724;2023-06-10T12:53:27;22.80;95.80
19892;DHT22;10108;50.142;8.724;2023-06-10T12:55:53;22.70;95.50
19892;DHT22;10108;50.142;8.724;2023-06-10T12:58:20;22.60;95.70
19892;DHT22;10108;50.142;8.724;2023-06-10T13:00:48;22.60;95.00
19892;DHT22;10108;50.142;8.724;2023-06-10T13:03:15;22.60;95.40
19892;DHT22;10108;50.142;8.724;2023-06-10T13:05:41;22.70;93.50
19892;DHT22;10108;50.142;8.724;2023-06-10T13:08:10;23.00;93.60
19892;DHT22;10108;50.142;8.724;2023-06-10T13:10:36;23.10;94.20
19892;DHT22;10108;50.142;8.724;2023-06-10T13:13:03;23.00;94.80
19892;DHT22;10108;50.142;8.724;2023-06-10T13:15:32;23.00;95.40
19892;DHT22;10108;50.142;8.724;2023-06-10T13:18:03;22.90;95.60
19892;DHT22;10108;50.142;8.724;2023-06-10T13:20:29;22.90;95.00
19892;DHT22;10108;50.142;8.724;2023-06-10T13:22:55;22.80;95.20
19892;DHT22;10108;50.142;8.724;2023-06-10T13:25:22;22.80;95.20
19892;DHT22;10108;50.142;8.724;2023-06-10T13:27:49;22.70;95.70
19892;DHT22;10108;50.142;8.724;2023-06-10T13:30:15;22.80;95.20
19892;DHT22;10108;50.142;8.724;2023-06-10T13:32:41;22.80;95.40
19892;DHT22;10108;50.142;8.724;2023-06-10T13:35:07;22.90;94.90
19892;DHT22;10108;50.142;8.724;2023-06-10T13:37:33;22.90;95.10
19892;DHT22;10108;50.142;8.724;2023-06-10T13:40:00;22.90;95.10
19892;DHT22;10108;50.142;8.724;2023-06-10T13:42:27;22.90;94.90
19892;DHT22;10108;50.142;8.724;2023-06-10T13:44:54;22.90;95.20
19892;DHT22;10108;50.142;8.724;2023-06-10T13:47:22;22.90;94.70
19892;DHT22;10108;50.142;8.724;2023-06-10T13:49:48;22.90;95.00
19892;DHT22;10108;50.142;8.724;2023-06-10T13:52:14;23.00;94.70
19892;DHT22;10108;50.142;8.724;2023-06-10T13:54:40;23.10;94.20
19892;DHT22;10108;50.142;8.724;2023-06-10T13:57:07;23.10;94.90
19892;DHT22;10108;50.142;8.724;2023-06-10T13:59:35;23.10;95.60
19892;DHT22;10108;50.142;8.724;2023-06-10T14:02:02;23.00;96.00
19892;DHT22;10108;50.142;8.724;2023-06-10T14:04:28;22.90;95.40
19892;DHT22;10108;50.142;8.724;2023-06-10T14:06:54;22.90;95.50
19892;DHT22;10108;50.142;8.724;2023-06-10T14:09:20;22.90;96.00
19892;DHT22;10108;50.142;8.724;2023-06-10T14:11:46;22.80;96.30
19892;DHT22;10108;50.142;8.724;2023-06-10T14:14:13;22.70;96.40
19892;DHT22;10108;50.142;8.724;2023-06-10T14:16:40;22.70;96.70
19892;DHT22;10108;50.142;8.724;2023-06-10T14:19:06;22.70;95.70
19892;DHT22;10108;50.142;8.724;2023-06-10T14:21:32;22.60;96.10
19892;DHT22;10108;50.142;8.724;2023-06-10T14:23:58;22.60;95.10
19892;DHT22;10108;50.142;8.724;2023-06-10T14:26:24;22.60;94.40
19892;DHT22;10108;50.142;8.724;2023-06-10T14:28:52;22.70;94.00
19892;DHT22;10108;50.142;8.724;2023-06-10T14:31:18;22.80;93.70
19892;DHT22;10108;50.142;8.724;2023-06-10T14:33:44;23.00;92.20
19892;DHT22;10108;50.142;8.724;2023-06-10T14:36:11;23.10;92.70
19892;DHT22;10108;50.142;8.724;2023-06-10T14:38:37;23.20;92.50
19892;DHT22;10108;50.142;8.724;2023-06-10T14:41:03;23.20;93.30
19892;DHT22;10108;50.142;8.724;2023-06-10T14:43:29;23.10;93.60
19892;DHT22;10108;50.142;8.724;2023-06-10T14:45:55;23.10;93.00
19892;DHT22;10108;50.142;8.724;2023-06-10T14:48:22;23.10;93.70
19892;DHT22;10108;50.142;8.724;2023-06-10T14:50:48;23.00;94.10
19892;DHT22;10108;50.142;8.724;2023-06-10T14:53:17;23.00;94.70
19892;DHT22;10108;50.142;8.724;2023-06-10T14:55:44;23.00;95.00
19892;DHT22;10108;50.142;8.724;2023-06-10T14:58:10;22.90;95.40
19892;DHT22;10108;50.142;8.724;2023-06-10T15:00:36;22.90;94.70
19892;DHT22;10108;50.142;8.724;2023-06-10T15:03:02;22.90;95.20
19892;DHT22;10108;50.142;8.724;2023-06-10T15:05:29;22.90;94.80
19892;DHT22;10108;50.142;8.724;2023-06-10T15:07:55;22.90;94.60
19892;DHT22;10108;50.142;8.724;2023-06-10T15:10:21;22.80;93.90
19892;DHT22;10108;50.142;8.724;2023-06-10T15:12:48;22.90;93.30
19892;DHT22;10108;50.142;8.724;2023-06-10T15:15:22;23.00;93.30
19892;DHT22;10108;50.142;8.724;2023-06-10T15:17:48;23.30;92.90
19892;DHT22;10108;50.142;8.724;2023-06-10T15:20:14;23.40;92.50
19892;DHT22;10108;50.142;8.724;2023-06-10T15:22:41;23.50;92.50
19892;DHT22;10108;50.142;8.724;2023-06-10T15:25:07;23.50;92.40
19892;DHT22;10108;50.142;8.724;2023-06-10T15:27:33;23.50;92.70
19892;DHT22;10108;50.142;8.724;2023-06-10T15:29:59;23.50;93.00
19892;DHT22;10108;50.142;8.724;2023-06-10T15:32:25;23.40;93.50
19892;DHT22;10108;50.142;8.724;2023-06-10T15:34:52;23.20;93.60
19892;DHT22;10108;50.142;8.724;2023-06-10T15:37:19;23.10;94.10
19892;DHT22;10108;50.142;8.724;2023-06-10T15:39:47;23.00;93.70
19892;DHT22;10108;50.142;8.724;2023-06-10T15:42:13;23.00;93.30
19892;DHT22;10108;50.142;8.724;2023-06-10T15:44:39;23.00;93.60
19892;DHT22;10108;50.142;8.724;2023-06-10T15:47:06;22.90;94.10
19892;DHT22;10108;50.142;8.724;2023-06-10T15:49:32;22.90;94.60
19892;DHT22;10108;50.142;8.724;2023-06-10T15:51:58;22.90;93.90